sensor_id;sensor_type;location;lat;lon;timestamp;P1;durP1;ratioP1;P2;durP2;ratioP2
16660;SDS011;8444;52.012;5.048;2023-07-08T00:01:08;3.25;;;2.53;;
16660;SDS011;8444;52.012;5.048;2023-07-08T00:03:33;2.75;;;2.42;;
16660;SDS011;8444;52.012;5.048;2023-07-08T00:05:59;3.13;;;2.35;;
16660;SDS011;8444;52.012;5.048;2023-07-08T00:08:24;3.75;;;2.33;;
16660;SDS011;8444;52.012;5.048;2023-07-08T00:10:50;6.85;;;2.55;;
16660;SDS011;8444;52.012;5.048;2023-07-08T00:15:49;3.70;;;2.63;;
16660;SDS011;8444;52.012;5.048;2023-07-08T00:18:15;4.05;;;2.08;;
16660;SDS011;8444;52.012;5.048;2023-07-08T00:20:45;3.53;;;2.28;;
16660;SDS011;8444;52.012;5.048;2023-07-08T00:23:10;11.40;;;3.38;;
16660;SDS011;8444;52.012;5.048;2023-07-08T00:25:36;4.93;;;2.50;;
16660;SDS011;8444;52.012;5.048;2023-07-08T00:28:01;4.60;;;2.30;;
16660;SDS011;8444;52.012;5.048;2023-07-08T00:30:30;2.80;;;2.33;;
16660;SDS011;8444;52.012;5.048;2023-07-08T00:32:56;4.68;;;2.55;;
16660;SDS011;8444;52.012;5.048;2023-07-08T00:35:33;6.45;;;2.33;;
16660;SDS011;8444;52.012;5.048;2023-07-08T00:37:59;4.90;;;2.28;;
16660;SDS011;8444;52.012;5.048;2023-07-08T00:40:32;3.17;;;2.08;;
16660;SDS011;8444;52.012;5.048;2023-07-08T00:43:01;5.82;;;2.30;;
16660;SDS011;8444;52.012;5.048;2023-07-08T00:45:44;6.10;;;2.35;;
16660;SDS011;8444;52.012;5.048;2023-07-08T00:50:36;5.07;;;2.95;;
16660;SDS011;8444;52.012;5.048;2023-07-08T00:55:46;2.85;;;2.35;;
16660;SDS011;8444;52.012;5.048;2023-07-08T00:58:11;4.68;;;2.50;;
16660;SDS011;8444;52.012;5.048;2023-07-08T01:00:36;5.00;;;2.50;;
16660;SDS011;8444;52.012;5.048;2023-07-08T01:03:02;3.67;;;2.20;;
16660;SDS011;8444;52.012;5.048;2023-07-08T01:05:28;4.03;;;2.58;;
16660;SDS011;8444;52.012;5.048;2023-07-08T01:07:56;4.22;;;2.60;;
16660;SDS011;8444;52.012;5.048;2023-07-08T01:10:25;4.70;;;2.47;;
16660;SDS011;8444;52.012;5.048;2023-07-08T01:12:53;3.92;;;2.95;;
16660;SDS011;8444;52.012;5.048;2023-07-08T01:15:20;3.95;;;2.70;;
16660;SDS011;8444;52.012;5.048;2023-07-08T01:17:46;3.50;;;2.70;;
16660;SDS011;8444;52.012;5.048;2023-07-08T01:20:12;4.95;;;2.60;;
16660;SDS011;8444;52.012;5.048;2023-07-08T01:22:41;7.75;;;2.75;;
16660;SDS011;8444;52.012;5.048;2023-07-08T01:25:07;4.72;;;2.70;;
16660;SDS011;8444;52.012;5.048;2023-07-08T01:27:34;3.47;;;2.63;;
16660;SDS011;8444;52.012;5.048;2023-07-08T01:30:00;3.22;;;2.38;;
16660;SDS011;8444;52.012;5.048;2023-07-08T01:32:26;3.95;;;2.50;;
16660;SDS011;8444;52.012;5.048;2023-07-08T01:34:52;3.05;;;2.70;;
16660;SDS011;8444;52.012;5.048;2023-07-08T01:37:29;4.78;;;2.72;;
16660;SDS011;8444;52.012;5.048;2023-07-08T01:39:56;3.75;;;2.50;;
16660;SDS011;8444;52.012;5.048;2023-07-08T01:42:21;4.07;;;2.45;;
16660;SDS011;8444;52.012;5.048;2023-07-08T01:44:46;4.22;;;2.70;;
16660;SDS011;8444;52.012;5.048;2023-07-08T01:47:16;5.38;;;3.17;;
16660;SDS011;8444;52.012;5.048;2023-07-08T01:49:42;3.92;;;2.42;;
16660;SDS011;8444;52.012;5.048;2023-07-08T01:52:09;3.80;;;2.90;;
16660;SDS011;8444;52.012;5.048;2023-07-08T01:54:35;5.03;;;3.22;;
16660;SDS011;8444;52.012;5.048;2023-07-08T01:57:00;2.75;;;2.47;;
16660;SDS011;8444;52.012;5.048;2023-07-08T01:59:27;3.83;;;2.83;;
16660;SDS011;8444;52.012;5.048;2023-07-08T02:01:52;4.70;;;2.65;;
16660;SDS011;8444;52.012;5.048;2023-07-08T02:04:21;4.57;;;2.45;;
16660;SDS011;8444;52.012;5.048;2023-07-08T02:06:57;6.40;;;3.00;;
16660;SDS011;8444;52.012;5.048;2023-07-08T02:09:22;4.07;;;2.92;;
16660;SDS011;8444;52.012;5.048;2023-07-08T02:11:48;4.57;;;2.50;;
16660;SDS011;8444;52.012;5.048;2023-07-08T02:14:13;3.33;;;2.80;;
16660;SDS011;8444;52.012;5.048;2023-07-08T02:16:38;4.68;;;2.65;;
16660;SDS011;8444;52.012;5.048;2023-07-08T02:19:04;4.05;;;3.00;;
16660;SDS011;8444;52.012;5.048;2023-07-08T02:21:29;3.92;;;3.15;;
16660;SDS011;8444;52.012;5.048;2023-07-08T02:23:56;3.17;;;2.35;;
16660;SDS011;8444;52.012;5.048;2023-07-08T02:26:21;4.15;;;2.80;;
16660;SDS011;8444;52.012;5.048;2023-07-08T02:28:46;4.10;;;3.05;;
16660;SDS011;8444;52.012;5.048;2023-07-08T02:31:12;4.45;;;2.85;;
16660;SDS011;8444;52.012;5.048;2023-07-08T02:33:37;3.38;;;2.90;;
16660;SDS011;8444;52.012;5.048;2023-07-08T02:36:02;3.42;;;2.83;;
16660;SDS011;8444;52.012;5.048;2023-07-08T02:38:27;3.17;;;2.83;;
16660;SDS011;8444;52.012;5.048;2023-07-08T02:40:52;4.55;;;2.63;;
16660;SDS011;8444;52.012;5.048;2023-07-08T02:43:18;5.75;;;2.67;;
16660;SDS011;8444;52.012;5.048;2023-07-08T02:45:43;3.30;;;3.00;;
16660;SDS011;8444;52.012;5.048;2023-07-08T02:48:08;3.38;;;2.50;;
16660;SDS011;8444;52.012;5.048;2023-07-08T02:50:33;4.28;;;2.53;;
16660;SDS011;8444;52.012;5.048;2023-07-08T02:52:59;3.97;;;2.45;;
16660;SDS011;8444;52.012;5.048;2023-07-08T02:55:24;3.45;;;2.83;;
16660;SDS011;8444;52.012;5.048;2023-07-08T02:57:49;6.90;;;3.25;;
16660;SDS011;8444;52.012;5.048;2023-07-08T03:00:14;4.50;;;3.17;;
16660;SDS011;8444;52.012;5.048;2023-07-08T03:02:40;3.85;;;2.65;;
16660;SDS011;8444;52.012;5.048;2023-07-08T03:05:05;4.85;;;3.00;;
16660;SDS011;8444;52.012;5.048;2023-07-08T03:07:30;4.50;;;2.50;;
16660;SDS011;8444;52.012;5.048;2023-07-08T03:09:55;3.05;;;2.33;;
16660;SDS011;8444;52.012;5.048;2023-07-08T03:12:21;3.92;;;2.70;;
16660;SDS011;8444;52.012;5.048;2023-07-08T03:14:46;5.00;;;2.90;;
16660;SDS011;8444;52.012;5.048;2023-07-08T03:17:11;6.10;;;3.15;;
16660;SDS011;8444;52.012;5.048;2023-07-08T03:19:36;3.60;;;2.70;;
16660;SDS011;8444;52.012;5.048;2023-07-08T03:22:02;2.65;;;2.45;;
16660;SDS011;8444;52.012;5.048;2023-07-08T03:24:29;3.83;;;2.25;;
16660;SDS011;8444;52.012;5.048;2023-07-08T03:26:55;5.18;;;2.90;;
16660;SDS011;8444;52.012;5.048;2023-07-08T03:29:20;4.35;;;2.40;;
16660;SDS011;8444;52.012;5.048;2023-07-08T03:31:45;5.15;;;2.60;;
16660;SDS011;8444;52.012;5.048;2023-07-08T03:34:11;3.33;;;2.65;;
16660;SDS011;8444;52.012;5.048;2023-07-08T03:36:40;3.47;;;2.42;;
16660;SDS011;8444;52.012;5.048;2023-07-08T03:39:09;3.15;;;2.60;;
16660;SDS011;8444;52.012;5.048;2023-07-08T03:41:34;7.45;;;3.00;;
16660;SDS011;8444;52.012;5.048;2023-07-08T03:43:59;5.20;;;2.92;;
16660;SDS011;8444;52.012;5.048;2023-07-08T03:46:24;3.75;;;2.80;;
16660;SDS011;8444;52.012;5.048;2023-07-08T03:48:49;3.03;;;2.38;;
16660;SDS011;8444;52.012;5.048;2023-07-08T03:51:25;3.67;;;2.80;;
16660;SDS011;8444;52.012;5.048;2023-07-08T03:53:52;2.78;;;2.50;;
16660;SDS011;8444;52.012;5.048;2023-07-08T03:56:17;3.35;;;2.47;;
16660;SDS011;8444;52.012;5.048;2023-07-08T03:58:42;5.22;;;3.03;;
16660;SDS011;8444;52.012;5.048;2023-07-08T04:01:41;3.95;;;3.08;;
16660;SDS011;8444;52.012;5.048;2023-07-08T04:03:59;7.20;;;2.70;;
16660;SDS011;8444;52.012;5.048;2023-07-08T04:06:25;4.68;;;2.80;;
16660;SDS011;8444;52.012;5.048;2023-07-08T04:08:51;5.28;;;3.08;;
16660;SDS011;8444;52.012;5.048;2023-07-08T04:11:18;3.30;;;2.25;;
16660;SDS011;8444;52.012;5.048;2023-07-08T04:13:44;3.42;;;2.10;;
16660;SDS011;8444;52.012;5.048;2023-07-08T04:16:14;3.72;;;2.45;;
16660;SDS011;8444;52.012;5.048;2023-07-08T04:18:41;3.85;;;2.70;;
16660;SDS011;8444;52.012;5.048;2023-07-08T04:21:06;5.38;;;2.92;;
16660;SDS011;8444;52.012;5.048;2023-07-08T04:23:31;4.68;;;2.58;;
16660;SDS011;8444;52.012;5.048;2023-07-08T04:25:57;5.05;;;2.67;;
16660;SDS011;8444;52.012;5.048;2023-07-08T04:28:22;3.15;;;2.30;;
16660;SDS011;8444;52.012;5.048;2023-07-08T04:30:47;4.18;;;2.53;;
16660;SDS011;8444;52.012;5.048;2023-07-08T04:33:14;3.30;;;2.42;;
16660;SDS011;8444;52.012;5.048;2023-07-08T04:35:39;3.60;;;2.15;;
16660;SDS011;8444;52.012;5.048;2023-07-08T04:38:05;4.18;;;2.88;;
16660;SDS011;8444;52.012;5.048;2023-07-08T04:40:34;3.28;;;2.60;;
16660;SDS011;8444;52.012;5.048;2023-07-08T04:43:02;2.15;;;1.95;;
16660;SDS011;8444;52.012;5.048;2023-07-08T04:45:27;11.13;;;2.97;;
16660;SDS011;8444;52.012;5.048;2023-07-08T04:47:53;4.45;;;2.08;;
16660;SDS011;8444;52.012;5.048;2023-07-08T04:50:18;4.53;;;2.83;;
16660;SDS011;8444;52.012;5.048;2023-07-08T04:52:43;3.83;;;2.90;;
16660;SDS011;8444;52.012;5.048;2023-07-08T04:55:08;3.90;;;2.40;;
16660;SDS011;8444;52.012;5.048;2023-07-08T04:57:34;2.95;;;2.25;;
16660;SDS011;8444;52.012;5.048;2023-07-08T05:00:00;6.35;;;2.63;;
16660;SDS011;8444;52.012;5.048;2023-07-08T05:02:25;4.15;;;2.47;;
16660;SDS011;8444;52.012;5.048;2023-07-08T05:04:50;2.88;;;2.50;;
16660;SDS011;8444;52.012;5.048;2023-07-08T05:07:15;2.92;;;2.30;;
16660;SDS011;8444;52.012;5.048;2023-07-08T05:09:41;3.85;;;2.30;;
16660;SDS011;8444;52.012;5.048;2023-07-08T05:12:06;5.90;;;2.87;;
16660;SDS011;8444;52.012;5.048;2023-07-08T05:14:31;3.13;;;2.58;;
16660;SDS011;8444;52.012;5.048;2023-07-08T05:16:57;4.25;;;2.22;;
16660;SDS011;8444;52.012;5.048;2023-07-08T05:19:22;3.65;;;2.55;;
16660;SDS011;8444;52.012;5.048;2023-07-08T05:21:48;2.53;;;2.00;;
16660;SDS011;8444;52.012;5.048;2023-07-08T05:24:13;4.15;;;2.38;;
16660;SDS011;8444;52.012;5.048;2023-07-08T05:26:38;2.47;;;2.20;;
16660;SDS011;8444;52.012;5.048;2023-07-08T05:29:03;3.28;;;2.33;;
16660;SDS011;8444;52.012;5.048;2023-07-08T05:31:30;4.03;;;2.58;;
16660;SDS011;8444;52.012;5.048;2023-07-08T05:33:55;8.13;;;2.45;;
16660;SDS011;8444;52.012;5.048;2023-07-08T05:36:20;5.07;;;2.40;;
16660;SDS011;8444;52.012;5.048;2023-07-08T05:38:45;3.17;;;2.20;;
16660;SDS011;8444;52.012;5.048;2023-07-08T05:41:11;8.10;;;3.25;;
16660;SDS011;8444;52.012;5.048;2023-07-08T05:43:37;3.65;;;2.80;;
16660;SDS011;8444;52.012;5.048;2023-07-08T05:46:02;2.92;;;2.20;;
16660;SDS011;8444;52.012;5.048;2023-07-08T05:48:28;4.10;;;2.42;;
16660;SDS011;8444;52.012;5.048;2023-07-08T05:50:53;5.47;;;2.60;;
16660;SDS011;8444;52.012;5.048;2023-07-08T05:53:19;4.47;;;2.72;;
16660;SDS011;8444;52.012;5.048;2023-07-08T05:55:45;8.43;;;3.15;;
16660;SDS011;8444;52.012;5.048;2023-07-08T05:58:10;3.13;;;2.00;;
16660;SDS011;8444;52.012;5.048;2023-07-08T06:00:35;2.35;;;1.92;;
16660;SDS011;8444;52.012;5.048;2023-07-08T06:03:01;3.83;;;2.25;;
16660;SDS011;8444;52.012;5.048;2023-07-08T06:05:26;3.73;;;2.40;;
16660;SDS011;8444;52.012;5.048;2023-07-08T06:07:51;4.55;;;2.50;;
16660;SDS011;8444;52.012;5.048;2023-07-08T06:10:16;3.92;;;2.33;;
16660;SDS011;8444;52.012;5.048;2023-07-08T06:12:42;4.03;;;2.50;;
16660;SDS011;8444;52.012;5.048;2023-07-08T06:15:07;4.30;;;2.58;;
16660;SDS011;8444;52.012;5.048;2023-07-08T06:17:32;4.40;;;2.58;;
16660;SDS011;8444;52.012;5.048;2023-07-08T06:19:57;4.10;;;2.38;;
16660;SDS011;8444;52.012;5.048;2023-07-08T06:22:22;3.80;;;2.00;;
16660;SDS011;8444;52.012;5.048;2023-07-08T06:24:48;4.15;;;2.50;;
16660;SDS011;8444;52.012;5.048;2023-07-08T06:27:13;6.43;;;2.50;;
16660;SDS011;8444;52.012;5.048;2023-07-08T06:29:38;3.72;;;2.35;;
16660;SDS011;8444;52.012;5.048;2023-07-08T06:32:04;3.13;;;2.33;;
16660;SDS011;8444;52.012;5.048;2023-07-08T06:34:29;4.30;;;2.67;;
16660;SDS011;8444;52.012;5.048;2023-07-08T06:36:54;3.22;;;2.58;;
16660;SDS011;8444;52.012;5.048;2023-07-08T06:39:19;4.27;;;2.50;;
16660;SDS011;8444;52.012;5.048;2023-07-08T06:41:45;2.58;;;2.05;;
16660;SDS011;8444;52.012;5.048;2023-07-08T06:44:10;3.42;;;2.83;;
16660;SDS011;8444;52.012;5.048;2023-07-08T06:46:35;3.70;;;2.63;;
16660;SDS011;8444;52.012;5.048;2023-07-08T06:49:01;5.20;;;2.63;;
16660;SDS011;8444;52.012;5.048;2023-07-08T06:51:26;6.45;;;2.70;;
16660;SDS011;8444;52.012;5.048;2023-07-08T06:53:51;5.03;;;2.88;;
16660;SDS011;8444;52.012;5.048;2023-07-08T06:56:17;3.17;;;2.63;;
16660;SDS011;8444;52.012;5.048;2023-07-08T06:58:42;3.25;;;2.53;;
16660;SDS011;8444;52.012;5.048;2023-07-08T07:01:07;2.63;;;2.17;;
16660;SDS011;8444;52.012;5.048;2023-07-08T07:03:32;2.67;;;2.47;;
16660;SDS011;8444;52.012;5.048;2023-07-08T07:05:58;3.75;;;2.55;;
16660;SDS011;8444;52.012;5.048;2023-07-08T07:08:23;4.00;;;2.47;;
16660;SDS011;8444;52.012;5.048;2023-07-08T07:10:48;2.67;;;2.42;;
16660;SDS011;8444;52.012;5.048;2023-07-08T07:13:13;4.18;;;2.20;;
16660;SDS011;8444;52.012;5.048;2023-07-08T07:15:39;4.68;;;2.60;;
16660;SDS011;8444;52.012;5.048;2023-07-08T07:18:04;3.60;;;2.50;;
16660;SDS011;8444;52.012;5.048;2023-07-08T07:20:29;8.63;;;2.72;;
16660;SDS011;8444;52.012;5.048;2023-07-08T07:22:55;6.15;;;2.53;;
16660;SDS011;8444;52.012;5.048;2023-07-08T07:25:20;2.97;;;2.03;;
16660;SDS011;8444;52.012;5.048;2023-07-08T07:27:45;6.38;;;2.95;;
16660;SDS011;8444;52.012;5.048;2023-07-08T07:30:11;4.45;;;2.80;;
16660;SDS011;8444;52.012;5.048;2023-07-08T07:32:40;4.43;;;2.45;;
16660;SDS011;8444;52.012;5.048;2023-07-08T07:35:06;3.15;;;2.22;;
16660;SDS011;8444;52.012;5.048;2023-07-08T07:37:31;4.43;;;2.22;;
16660;SDS011;8444;52.012;5.048;2023-07-08T07:39:57;5.13;;;2.57;;
16660;SDS011;8444;52.012;5.048;2023-07-08T07:42:22;4.20;;;2.50;;
16660;SDS011;8444;52.012;5.048;2023-07-08T07:44:47;5.93;;;2.95;;
16660;SDS011;8444;52.012;5.048;2023-07-08T07:47:12;9.27;;;2.92;;
16660;SDS011;8444;52.012;5.048;2023-07-08T07:49:38;7.78;;;3.35;;
16660;SDS011;8444;52.012;5.048;2023-07-08T07:52:03;6.03;;;2.50;;
16660;SDS011;8444;52.012;5.048;2023-07-08T07:54:29;4.70;;;3.03;;
16660;SDS011;8444;52.012;5.048;2023-07-08T07:56:54;4.32;;;2.50;;
16660;SDS011;8444;52.012;5.048;2023-07-08T07:59:19;5.22;;;2.97;;
16660;SDS011;8444;52.012;5.048;2023-07-08T08:01:44;3.53;;;2.72;;
16660;SDS011;8444;52.012;5.048;2023-07-08T08:04:10;6.73;;;2.80;;
16660;SDS011;8444;52.012;5.048;2023-07-08T08:06:35;5.15;;;2.75;;
16660;SDS011;8444;52.012;5.048;2023-07-08T08:09:01;4.13;;;2.50;;
16660;SDS011;8444;52.012;5.048;2023-07-08T08:11:26;4.60;;;2.67;;
16660;SDS011;8444;52.012;5.048;2023-07-08T08:13:52;3.97;;;2.65;;
16660;SDS011;8444;52.012;5.048;2023-07-08T08:16:17;4.88;;;2.97;;
16660;SDS011;8444;52.012;5.048;2023-07-08T08:18:42;3.40;;;2.90;;
16660;SDS011;8444;52.012;5.048;2023-07-08T08:21:07;5.93;;;2.73;;
16660;SDS011;8444;52.012;5.048;2023-07-08T08:23:33;3.47;;;2.93;;
16660;SDS011;8444;52.012;5.048;2023-07-08T08:25:58;3.72;;;2.42;;
16660;SDS011;8444;52.012;5.048;2023-07-08T08:28:23;5.05;;;3.05;;
16660;SDS011;8444;52.012;5.048;2023-07-08T08:30:49;4.55;;;2.60;;
16660;SDS011;8444;52.012;5.048;2023-07-08T08:33:15;4.10;;;3.03;;
16660;SDS011;8444;52.012;5.048;2023-07-08T08:35:41;3.83;;;2.65;;
16660;SDS011;8444;52.012;5.048;2023-07-08T08:38:06;6.25;;;3.42;;
16660;SDS011;8444;52.012;5.048;2023-07-08T08:40:32;5.00;;;2.93;;
16660;SDS011;8444;52.012;5.048;2023-07-08T08:42:58;4.80;;;3.22;;
16660;SDS011;8444;52.012;5.048;2023-07-08T08:45:25;4.88;;;3.30;;
16660;SDS011;8444;52.012;5.048;2023-07-08T08:47:54;7.40;;;3.10;;
16660;SDS011;8444;52.012;5.048;2023-07-08T08:52:49;4.70;;;3.00;;
16660;SDS011;8444;52.012;5.048;2023-07-08T08:55:14;5.70;;;2.85;;
16660;SDS011;8444;52.012;5.048;2023-07-08T08:57:45;4.68;;;3.17;;
16660;SDS011;8444;52.012;5.048;2023-07-08T09:00:13;3.50;;;2.83;;
16660;SDS011;8444;52.012;5.048;2023-07-08T09:03:01;3.00;;;2.58;;
16660;SDS011;8444;52.012;5.048;2023-07-08T09:05:28;4.75;;;3.08;;
16660;SDS011;8444;52.012;5.048;2023-07-08T09:10:29;5.47;;;3.03;;
16660;SDS011;8444;52.012;5.048;2023-07-08T09:12:58;3.97;;;3.20;;
16660;SDS011;8444;52.012;5.048;2023-07-08T09:15:25;3.80;;;2.70;;
16660;SDS011;8444;52.012;5.048;2023-07-08T09:17:50;3.80;;;3.17;;
16660;SDS011;8444;52.012;5.048;2023-07-08T09:20:23;5.25;;;3.25;;
16660;SDS011;8444;52.012;5.048;2023-07-08T09:27:43;7.40;;;3.47;;
16660;SDS011;8444;52.012;5.048;2023-07-08T09:30:13;5.77;;;3.80;;
16660;SDS011;8444;52.012;5.048;2023-07-08T09:32:38;5.00;;;3.42;;
16660;SDS011;8444;52.012;5.048;2023-07-08T09:35:04;5.80;;;3.57;;
16660;SDS011;8444;52.012;5.048;2023-07-08T09:37:31;4.22;;;3.55;;
16660;SDS011;8444;52.012;5.048;2023-07-08T09:39:59;4.43;;;3.25;;
16660;SDS011;8444;52.012;5.048;2023-07-08T09:42:28;5.45;;;3.78;;
16660;SDS011;8444;52.012;5.048;2023-07-08T09:44:55;6.38;;;3.33;;
16660;SDS011;8444;52.012;5.048;2023-07-08T09:47:23;5.47;;;3.42;;
16660;SDS011;8444;52.012;5.048;2023-07-08T09:49:48;4.28;;;3.40;;
16660;SDS011;8444;52.012;5.048;2023-07-08T09:52:14;4.40;;;3.78;;
16660;SDS011;8444;52.012;5.048;2023-07-08T09:54:42;5.70;;;3.07;;
16660;SDS011;8444;52.012;5.048;2023-07-08T09:59:57;8.25;;;3.95;;
16660;SDS011;8444;52.012;5.048;2023-07-08T10:04:51;5.43;;;3.77;;
16660;SDS011;8444;52.012;5.048;2023-07-08T10:07:17;5.95;;;3.88;;
16660;SDS011;8444;52.012;5.048;2023-07-08T10:09:42;4.40;;;3.50;;
16660;SDS011;8444;52.012;5.048;2023-07-08T10:12:09;5.03;;;3.38;;
16660;SDS011;8444;52.012;5.048;2023-07-08T10:14:41;4.53;;;3.58;;
16660;SDS011;8444;52.012;5.048;2023-07-08T10:17:13;4.68;;;4.18;;
16660;SDS011;8444;52.012;5.048;2023-07-08T10:19:39;6.68;;;3.58;;
16660;SDS011;8444;52.012;5.048;2023-07-08T10:22:13;4.38;;;3.42;;
16660;SDS011;8444;52.012;5.048;2023-07-08T10:32:30;5.30;;;3.77;;
16660;SDS011;8444;52.012;5.048;2023-07-08T10:45:20;5.40;;;3.40;;
16660;SDS011;8444;52.012;5.048;2023-07-08T10:55:10;4.93;;;3.75;;
16660;SDS011;8444;52.012;5.048;2023-07-08T11:07:39;5.50;;;3.67;;
16660;SDS011;8444;52.012;5.048;2023-07-08T11:10:16;8.07;;;4.55;;
16660;SDS011;8444;52.012;5.048;2023-07-08T11:12:45;6.80;;;4.25;;
16660;SDS011;8444;52.012;5.048;2023-07-08T11:18:12;6.00;;;4.10;;
16660;SDS011;8444;52.012;5.048;2023-07-08T11:20:41;7.28;;;4.05;;
16660;SDS011;8444;52.012;5.048;2023-07-08T11:25:42;8.60;;;4.55;;
16660;SDS011;8444;52.012;5.048;2023-07-08T11:28:10;6.97;;;4.40;;
16660;SDS011;8444;52.012;5.048;2023-07-08T11:30:37;6.35;;;4.25;;
16660;SDS011;8444;52.012;5.048;2023-07-08T11:33:10;7.78;;;3.72;;
16660;SDS011;8444;52.012;5.048;2023-07-08T11:35:37;5.85;;;3.75;;
16660;SDS011;8444;52.012;5.048;2023-07-08T11:38:04;6.38;;;4.40;;
16660;SDS011;8444;52.012;5.048;2023-07-08T11:40:30;4.70;;;3.90;;
16660;SDS011;8444;52.012;5.048;2023-07-08T11:43:02;5.63;;;3.95;;
16660;SDS011;8444;52.012;5.048;2023-07-08T11:45:31;6.07;;;4.22;;
16660;SDS011;8444;52.012;5.048;2023-07-08T11:48:10;11.90;;;4.75;;
16660;SDS011;8444;52.012;5.048;2023-07-08T11:50:37;4.80;;;4.32;;
16660;SDS011;8444;52.012;5.048;2023-07-08T11:53:26;6.45;;;4.72;;
16660;SDS011;8444;52.012;5.048;2023-07-08T11:55:57;4.68;;;3.83;;
16660;SDS011;8444;52.012;5.048;2023-07-08T12:00:52;6.87;;;3.97;;
16660;SDS011;8444;52.012;5.048;2023-07-08T12:03:20;4.63;;;3.83;;
16660;SDS011;8444;52.012;5.048;2023-07-08T12:05:46;4.93;;;3.60;;
16660;SDS011;8444;52.012;5.048;2023-07-08T12:08:12;6.67;;;4.50;;
16660;SDS011;8444;52.012;5.048;2023-07-08T12:10:39;7.07;;;4.13;;
16660;SDS011;8444;52.012;5.048;2023-07-08T12:13:09;11.13;;;4.45;;
16660;SDS011;8444;52.012;5.048;2023-07-08T12:15:36;5.68;;;3.72;;
16660;SDS011;8444;52.012;5.048;2023-07-08T12:18:02;5.73;;;4.20;;
16660;SDS011;8444;52.012;5.048;2023-07-08T12:20:33;5.65;;;4.13;;
16660;SDS011;8444;52.012;5.048;2023-07-08T12:22:59;5.60;;;4.05;;
16660;SDS011;8444;52.012;5.048;2023-07-08T12:25:31;4.85;;;3.78;;
16660;SDS011;8444;52.012;5.048;2023-07-08T12:27:57;6.65;;;3.75;;
16660;SDS011;8444;52.012;5.048;2023-07-08T12:30:23;4.40;;;3.70;;
16660;SDS011;8444;52.012;5.048;2023-07-08T12:32:48;5.93;;;4.00;;
16660;SDS011;8444;52.012;5.048;2023-07-08T12:35:18;4.78;;;3.97;;
16660;SDS011;8444;52.012;5.048;2023-07-08T12:37:45;4.97;;;3.85;;
16660;SDS011;8444;52.012;5.048;2023-07-08T12:40:10;5.55;;;3.80;;
16660;SDS011;8444;52.012;5.048;2023-07-08T12:42:36;5.43;;;3.97;;
16660;SDS011;8444;52.012;5.048;2023-07-08T12:45:01;3.97;;;3.57;;
16660;SDS011;8444;52.012;5.048;2023-07-08T12:47:26;7.13;;;4.27;;
16660;SDS011;8444;52.012;5.048;2023-07-08T12:49:52;8.38;;;4.20;;
16660;SDS011;8444;52.012;5.048;2023-07-08T12:52:21;7.30;;;4.10;;
16660;SDS011;8444;52.012;5.048;2023-07-08T12:54:47;7.53;;;4.80;;
16660;SDS011;8444;52.012;5.048;2023-07-08T12:57:13;5.90;;;4.23;;
16660;SDS011;8444;52.012;5.048;2023-07-08T12:59:39;5.05;;;3.83;;
16660;SDS011;8444;52.012;5.048;2023-07-08T13:02:07;8.10;;;4.27;;
16660;SDS011;8444;52.012;5.048;2023-07-08T13:04:33;6.03;;;4.20;;
16660;SDS011;8444;52.012;5.048;2023-07-08T13:06:59;4.35;;;3.47;;
16660;SDS011;8444;52.012;5.048;2023-07-08T13:09:34;8.18;;;4.57;;
16660;SDS011;8444;52.012;5.048;2023-07-08T13:12:02;5.15;;;4.30;;
16660;SDS011;8444;52.012;5.048;2023-07-08T13:14:28;6.50;;;4.63;;
16660;SDS011;8444;52.012;5.048;2023-07-08T13:16:53;7.88;;;4.72;;
16660;SDS011;8444;52.012;5.048;2023-07-08T13:19:19;7.72;;;4.53;;
16660;SDS011;8444;52.012;5.048;2023-07-08T13:21:45;9.68;;;4.28;;
16660;SDS011;8444;52.012;5.048;2023-07-08T13:24:10;6.18;;;4.20;;
16660;SDS011;8444;52.012;5.048;2023-07-08T13:26:36;4.70;;;4.20;;
16660;SDS011;8444;52.012;5.048;2023-07-08T13:29:04;9.48;;;5.13;;
16660;SDS011;8444;52.012;5.048;2023-07-08T13:31:32;6.15;;;4.25;;
16660;SDS011;8444;52.012;5.048;2023-07-08T13:34:02;5.03;;;4.05;;
16660;SDS011;8444;52.012;5.048;2023-07-08T13:36:34;6.30;;;4.57;;
16660;SDS011;8444;52.012;5.048;2023-07-08T13:39:05;6.40;;;4.38;;
16660;SDS011;8444;52.012;5.048;2023-07-08T13:41:31;11.50;;;4.72;;
16660;SDS011;8444;52.012;5.048;2023-07-08T13:43:56;6.30;;;4.33;;
16660;SDS011;8444;52.012;5.048;2023-07-08T13:46:29;5.97;;;4.20;;
16660;SDS011;8444;52.012;5.048;2023-07-08T13:48:55;7.40;;;4.32;;
16660;SDS011;8444;52.012;5.048;2023-07-08T13:51:21;7.83;;;4.47;;
16660;SDS011;8444;52.012;5.048;2023-07-08T13:53:51;5.95;;;4.45;;
16660;SDS011;8444;52.012;5.048;2023-07-08T13:56:21;6.28;;;4.50;;
16660;SDS011;8444;52.012;5.048;2023-07-08T13:58:49;7.28;;;5.22;;
16660;SDS011;8444;52.012;5.048;2023-07-08T14:01:22;5.72;;;4.28;;
16660;SDS011;8444;52.012;5.048;2023-07-08T14:03:48;6.15;;;4.45;;
16660;SDS011;8444;52.012;5.048;2023-07-08T14:06:14;5.40;;;4.00;;
16660;SDS011;8444;52.012;5.048;2023-07-08T14:08:40;7.53;;;4.50;;
16660;SDS011;8444;52.012;5.048;2023-07-08T14:11:05;4.67;;;4.00;;
16660;SDS011;8444;52.012;5.048;2023-07-08T14:13:31;5.90;;;4.07;;
16660;SDS011;8444;52.012;5.048;2023-07-08T14:15:56;5.47;;;3.97;;
16660;SDS011;8444;52.012;5.048;2023-07-08T14:18:21;5.88;;;4.20;;
16660;SDS011;8444;52.012;5.048;2023-07-08T14:20:47;5.93;;;4.18;;
16660;SDS011;8444;52.012;5.048;2023-07-08T14:23:12;5.87;;;4.10;;
16660;SDS011;8444;52.012;5.048;2023-07-08T14:25:38;7.00;;;4.20;;
16660;SDS011;8444;52.012;5.048;2023-07-08T14:28:03;5.93;;;4.22;;
16660;SDS011;8444;52.012;5.048;2023-07-08T14:30:30;6.47;;;4.38;;
16660;SDS011;8444;52.012;5.048;2023-07-08T14:32:56;7.30;;;4.43;;
16660;SDS011;8444;52.012;5.048;2023-07-08T14:35:25;6.65;;;4.35;;
16660;SDS011;8444;52.012;5.048;2023-07-08T14:37:51;6.78;;;4.30;;
16660;SDS011;8444;52.012;5.048;2023-07-08T14:42:48;5.75;;;3.92;;
16660;SDS011;8444;52.012;5.048;2023-07-08T14:45:13;5.75;;;4.13;;
16660;SDS011;8444;52.012;5.048;2023-07-08T14:47:38;6.05;;;4.68;;
16660;SDS011;8444;52.012;5.048;2023-07-08T14:50:14;5.37;;;3.97;;
16660;SDS011;8444;52.012;5.048;2023-07-08T14:52:39;7.90;;;4.30;;
16660;SDS011;8444;52.012;5.048;2023-07-08T14:55:05;7.80;;;4.23;;
16660;SDS011;8444;52.012;5.048;2023-07-08T14:57:31;6.90;;;4.35;;
16660;SDS011;8444;52.012;5.048;2023-07-08T14:59:58;4.90;;;3.88;;
16660;SDS011;8444;52.012;5.048;2023-07-08T15:02:23;7.55;;;4.20;;
16660;SDS011;8444;52.012;5.048;2023-07-08T15:04:48;7.23;;;5.53;;
16660;SDS011;8444;52.012;5.048;2023-07-08T15:07:13;4.65;;;3.65;;
16660;SDS011;8444;52.012;5.048;2023-07-08T15:09:39;7.73;;;4.03;;
16660;SDS011;8444;52.012;5.048;2023-07-08T15:12:04;9.87;;;4.57;;
16660;SDS011;8444;52.012;5.048;2023-07-08T15:14:29;8.10;;;4.75;;
16660;SDS011;8444;52.012;5.048;2023-07-08T15:16:55;7.07;;;4.30;;
16660;SDS011;8444;52.012;5.048;2023-07-08T15:19:20;8.63;;;4.30;;
16660;SDS011;8444;52.012;5.048;2023-07-08T15:21:46;8.98;;;4.47;;
16660;SDS011;8444;52.012;5.048;2023-07-08T15:24:12;6.90;;;4.45;;
16660;SDS011;8444;52.012;5.048;2023-07-08T15:26:38;6.80;;;4.25;;
16660;SDS011;8444;52.012;5.048;2023-07-08T15:29:04;7.90;;;4.40;;
16660;SDS011;8444;52.012;5.048;2023-07-08T15:31:29;6.35;;;4.72;;
16660;SDS011;8444;52.012;5.048;2023-07-08T15:33:56;5.53;;;4.00;;
16660;SDS011;8444;52.012;5.048;2023-07-08T15:36:21;6.33;;;4.53;;
16660;SDS011;8444;52.012;5.048;2023-07-08T15:38:46;6.43;;;4.13;;
16660;SDS011;8444;52.012;5.048;2023-07-08T15:43:46;6.00;;;4.32;;
16660;SDS011;8444;52.012;5.048;2023-07-08T15:46:12;15.18;;;13.43;;
16660;SDS011;8444;52.012;5.048;2023-07-08T15:48:37;8.05;;;5.60;;
16660;SDS011;8444;52.012;5.048;2023-07-08T15:51:03;7.33;;;5.17;;
16660;SDS011;8444;52.012;5.048;2023-07-08T15:53:28;6.93;;;3.83;;
16660;SDS011;8444;52.012;5.048;2023-07-08T15:55:53;7.17;;;4.27;;
16660;SDS011;8444;52.012;5.048;2023-07-08T15:58:28;5.55;;;4.00;;
16660;SDS011;8444;52.012;5.048;2023-07-08T16:00:56;6.88;;;3.85;;
16660;SDS011;8444;52.012;5.048;2023-07-08T16:03:23;6.30;;;4.40;;
16660;SDS011;8444;52.012;5.048;2023-07-08T16:05:49;6.82;;;4.28;;
16660;SDS011;8444;52.012;5.048;2023-07-08T16:08:15;7.55;;;4.03;;